Time;durP1;ratioP1;P1;durP2;ratioP2;P2;SDS_P1;SDS_P2;PMS_P1;PMS_P2;Temp;Humidity;BMP_temperature;BMP_pressure;BME280_temperature;BME280_humidity;BME280_pressure;Samples;Min_cycle;Max_cycle;Signal;HPM_P1;HPM_P2
2023/05/19 00:01:47;;;;;;;8.23;2.75;;;;;;;7.46;82.89;100140.06;5101642;28;20170;-62
2023/05/19 00:04:14;;;;;;;9.25;3.28;;;;;;;7.51;83.92;100143.78;5102631;28;20525;-62
2023/05/19 00:06:41;;;;;;;9.95;3.28;;;;;;;7.55;82.30;100139.69;5098707;28;20046;-62
2023/05/19 00:09:09;;;;;;;18.58;9.32;;;;;;;7.53;82.92;100140.91;5103701;28;20051;-61
2023/05/19 00:11:39;;;;;;;14.15;6.45;;;;;;;7.40;83.50;100140.88;5080058;28;20056;-61
2023/05/19 00:14:08;;;;;;;8.75;3.03;;;;;;;7.41;84.17;100129.97;5094305;28;20040;-62
2023/05/19 00:16:36;;;;;;;13.10;3.58;;;;;;;7.41;84.04;100124.66;5092522;28;20048;-62
2023/05/19 00:19:04;;;;;;;10.32;3.78;;;;;;;7.63;87.37;100128.00;5097224;28;20051;-62
2023/05/19 00:21:31;;;;;;;9.43;3.67;;;;;;;7.39;85.37;100126.72;5100608;28;20046;-62
2023/05/19 00:23:58;;;;;;;9.48;3.50;;;;;;;7.32;85.40;100118.69;5099511;28;20283;-62
2023/05/19 00:26:27;;;;;;;8.70;3.90;;;;;;;7.36;85.33;100121.75;5103924;27;20039;-62
2023/05/19 00:29:05;;;;;;;8.45;3.90;;;;;;;7.11;87.16;100116.13;5082697;28;20044;-62
2023/05/19 00:31:33;;;;;;;17.90;4.00;;;;;;;7.03;87.83;100122.44;5100774;28;20101;-62
2023/05/19 00:34:01;;;;;;;11.02;3.60;;;;;;;7.07;88.95;100117.56;5089496;28;20066;-62
2023/05/19 00:36:28;;;;;;;9.68;3.53;;;;;;;6.97;87.72;100120.56;5085744;28;20052;-62
2023/05/19 00:38:56;;;;;;;7.05;3.80;;;;;;;6.90;87.50;100107.19;5085587;28;20389;-62
2023/05/19 00:41:23;;;;;;;13.02;4.22;;;;;;;6.91;87.89;100121.34;5099684;28;20051;-62
2023/05/19 00:43:50;;;;;;;16.35;4.55;;;;;;;6.70;88.20;100115.09;5095404;28;20078;-62
2023/05/19 00:46:19;;;;;;;8.50;3.55;;;;;;;6.78;87.73;100110.63;5086821;28;20067;-62
2023/05/19 00:48:46;;;;;;;9.23;3.83;;;;;;;6.81;87.24;100115.56;5082869;28;20123;-62
2023/05/19 00:51:15;;;;;;;12.55;4.07;;;;;;;6.89;86.60;100112.75;5093769;28;20532;-62
2023/05/19 00:53:42;;;;;;;12.32;4.30;;;;;;;6.87;86.45;100117.44;5100090;28;20048;-62
2023/05/19 00:56:09;;;;;;;11.00;4.15;;;;;;;6.79;87.11;100110.44;5095259;28;20049;-62
2023/05/19 00:58:38;;;;;;;10.35;3.65;;;;;;;6.87;88.41;100114.78;5102440;28;20251;-62
2023/05/19 01:01:06;;;;;;;8.60;3.50;;;;;;;6.79;87.85;100112.25;5098029;28;20067;-62
2023/05/19 01:03:35;;;;;;;7.03;3.30;;;;;;;6.96;91.91;100118.91;5082540;28;20068;-62
2023/05/19 01:06:03;;;;;;;10.15;3.80;;;;;;;6.77;88.28;100119.66;5081381;28;20055;-62
2023/05/19 01:08:31;;;;;;;9.40;3.60;;;;;;;6.47;91.24;100117.19;5100422;28;20055;-63
2023/05/19 01:10:58;;;;;;;6.43;3.53;;;;;;;6.49;90.89;100117.81;5100663;28;20040;-62
2023/05/19 01:13:26;;;;;;;11.65;3.63;;;;;;;6.52;90.50;100112.09;5096802;28;20035;-62
2023/05/19 01:16:05;;;;;;;10.25;3.70;;;;;;;6.50;89.45;100110.66;5104610;28;20616;-62
2023/05/19 01:18:39;;;;;;;12.10;4.07;;;;;;;6.56;92.03;100116.00;5082819;28;20097;-62
2023/05/19 01:21:25;;;;;;;7.50;3.90;;;;;;;6.37;90.28;100114.03;5079250;28;20555;-63
2023/05/19 01:23:56;;;;;;;7.43;3.70;;;;;;;6.32;91.48;100113.81;5100261;28;20553;-62
2023/05/19 01:26:35;;;;;;;9.20;4.10;;;;;;;6.23;95.14;100107.78;5100868;28;20048;-62
2023/05/19 01:29:15;;;;;;;11.88;3.92;;;;;;;6.34;91.36;100120.56;5100902;28;20044;-62
2023/05/19 01:31:45;;;;;;;12.20;4.18;;;;;;;6.21;91.77;100115.94;5097497;28;20052;-62
2023/05/19 01:34:12;;;;;;;10.32;3.97;;;;;;;6.10;91.92;100119.13;5083613;28;20497;-61
2023/05/19 01:36:39;;;;;;;10.15;4.28;;;;;;;6.21;91.66;100115.13;5105236;28;20048;-61
2023/05/19 01:39:06;;;;;;;9.35;3.85;;;;;;;6.21;91.96;100115.13;5094682;28;20039;-62
2023/05/19 01:41:33;;;;;;;10.30;3.70;;;;;;;6.11;91.55;100109.31;5096435;28;20075;-62
2023/05/19 01:44:00;;;;;;;10.00;3.58;;;;;;;6.13;91.11;100115.28;5102041;28;20036;-62
2023/05/19 01:46:27;;;;;;;8.32;3.78;;;;;;;6.29;90.68;100117.66;5102879;28;20044;-61
2023/05/19 01:48:56;;;;;;;13.52;4.03;;;;;;;6.30;92.04;100108.66;5101065;28;20489;-61
2023/05/19 01:51:23;;;;;;;10.48;3.90;;;;;;;6.10;91.58;100102.34;5098797;28;20055;-62
2023/05/19 01:53:50;;;;;;;8.18;4.13;;;;;;;6.19;91.07;100103.84;5081706;28;20036;-62
2023/05/19 01:56:20;;;;;;;9.80;3.65;;;;;;;6.04;93.04;100109.25;5104405;28;20510;-62
2023/05/19 01:58:50;;;;;;;10.07;3.83;;;;;;;5.95;92.99;100107.75;5086476;28;20078;-62
2023/05/19 02:01:21;;;;;;;14.68;4.50;;;;;;;5.97;94.66;100103.06;5100737;28;20050;-61
2023/05/19 02:03:59;;;;;;;9.45;5.10;;;;;;;5.94;95.01;100100.75;5099775;28;20040;-61
2023/05/19 02:06:32;;;;;;;11.00;4.20;;;;;;;6.10;94.53;100103.16;5101453;28;20039;-62
2023/05/19 02:09:03;;;;;;;9.25;4.20;;;;;;;6.08;92.44;100099.06;5075315;28;20052;-62
2023/05/19 02:11:35;;;;;;;11.48;4.05;;;;;;;6.39;95.09;100107.50;5074823;28;20040;-62
2023/05/19 02:14:03;;;;;;;9.65;3.67;;;;;;;6.29;92.98;100106.19;5082118;28;20063;-62
2023/05/19 02:16:30;;;;;;;8.50;4.00;;;;;;;5.86;93.00;100096.38;5085607;28;20059;-62
2023/05/19 02:18:59;;;;;;;9.20;4.15;;;;;;;6.07;97.36;100095.56;5076223;28;20039;-62
2023/05/19 02:21:26;;;;;;;6.57;3.88;;;;;;;5.64;95.32;100092.88;5083951;27;20471;-61
2023/05/19 02:23:55;;;;;;;14.43;4.82;;;;;;;5.63;97.46;100101.88;5102839;28;20118;-62
2023/05/19 02:26:22;;;;;;;14.52;4.57;;;;;;;5.69;95.67;100097.63;5085748;28;20472;-62
2023/05/19 02:28:49;;;;;;;10.75;3.95;;;;;;;5.65;95.16;100099.84;5083133;28;20047;-62
2023/05/19 02:31:16;;;;;;;9.70;3.83;;;;;;;5.54;96.23;100097.69;5104681;28;20067;-62
2023/05/19 02:33:43;;;;;;;10.38;4.40;;;;;;;5.67;98.11;100099.69;5100770;28;20090;-62
2023/05/19 02:36:13;;;;;;;10.25;4.28;;;;;;;5.46;96.20;100101.28;5105974;28;20062;-62
2023/05/19 02:38:40;;;;;;;14.02;4.35;;;;;;;5.38;97.99;100099.56;5102651;28;20046;-62
2023/05/19 02:41:07;;;;;;;11.98;4.22;;;;;;;5.32;97.63;100089.69;5101580;28;20511;-62
2023/05/19 02:43:34;;;;;;;11.75;4.47;;;;;;;5.39;99.25;100089.75;5089376;28;20069;-62
2023/05/19 02:46:01;;;;;;;9.98;4.32;;;;;;;5.27;96.28;100086.75;5106856;28;20560;-62
2023/05/19 02:48:28;;;;;;;9.40;3.80;;;;;;;5.46;100.00;100093.28;5105462;28;20072;-61
2023/05/19 02:50:55;;;;;;;7.72;4.18;;;;;;;5.52;98.86;100094.41;5077762;28;20066;-62
2023/05/19 02:53:23;;;;;;;10.70;4.47;;;;;;;5.12;99.10;100089.44;5078253;28;20048;-62
2023/05/19 02:55:50;;;;;;;8.90;3.83;;;;;;;4.98;99.64;100090.28;5078164;28;20074;-62
2023/05/19 02:58:19;;;;;;;8.43;4.30;;;;;;;4.96;100.00;100087.81;5078334;28;20036;-62
2023/05/19 03:00:46;;;;;;;10.77;4.00;;;;;;;5.02;100.00;100088.06;5108670;28;20043;-62
2023/05/19 03:03:13;;;;;;;8.65;4.13;;;;;;;5.09;100.00;100091.63;5079040;28;20056;-62
2023/05/19 03:05:41;;;;;;;8.02;4.07;;;;;;;5.22;100.00;100094.47;5104014;28;20629;-62
2023/05/19 03:08:08;;;;;;;9.85;4.15;;;;;;;5.26;98.97;100095.72;5102796;28;20036;-61
2023/05/19 03:10:36;;;;;;;14.73;4.78;;;;;;;5.21;98.80;100087.50;5087236;28;20153;-61
2023/05/19 03:13:04;;;;;;;8.60;3.80;;;;;;;5.26;98.42;100092.25;5084950;28;20048;-62
2023/05/19 03:15:34;;;;;;;13.13;4.65;;;;;;;5.32;98.34;100092.34;5080671;28;20537;-61
2023/05/19 03:18:01;;;;;;;7.65;4.00;;;;;;;5.38;99.55;100088.09;5077870;28;20044;-61
2023/05/19 03:20:29;;;;;;;8.68;4.25;;;;;;;5.29;98.23;100090.06;5079505;28;20048;-61
2023/05/19 03:22:56;;;;;;;9.25;4.28;;;;;;;5.37;100.00;100091.78;5083829;28;20094;-61
2023/05/19 03:25:24;;;;;;;10.52;4.43;;;;;;;5.29;99.11;100090.06;5076315;28;20037;-61
2023/05/19 03:27:52;;;;;;;11.85;4.65;;;;;;;4.97;99.50;100083.34;5086543;28;20150;-62
2023/05/19 03:30:19;;;;;;;9.88;4.30;;;;;;;5.00;100.00;100085.63;5079633;28;20052;-61
2023/05/19 03:33:06;;;;;;;10.80;4.10;;;;;;;4.98;100.00;100077.81;5079470;28;20124;-62
2023/05/19 03:35:34;;;;;;;12.65;4.97;;;;;;;4.95;100.00;100088.81;5073256;28;20044;-61
2023/05/19 03:38:01;;;;;;;13.27;4.57;;;;;;;5.26;99.66;100085.09;5086134;28;20032;-61
2023/05/19 03:40:28;;;;;;;12.43;3.97;;;;;;;5.21;100.00;100090.16;5086008;28;20056;-62
2023/05/19 03:43:03;;;;;;;9.65;4.72;;;;;;;5.18;99.08;100085.22;5077250;28;20047;-61
2023/05/19 03:45:31;;;;;;;11.73;4.47;;;;;;;5.15;98.70;100088.25;5082871;28;20044;-61
2023/05/19 03:47:59;;;;;;;12.93;3.88;;;;;;;5.36;100.00;100090.94;5086018;28;20079;-62
2023/05/19 03:50:59;;;;;;;9.55;4.13;;;;;;;5.24;97.72;100092.47;5057417;28;20048;-61
2023/05/19 03:53:30;;;;;;;11.15;4.30;;;;;;;5.82;99.81;100089.78;5074208;28;20558;-62
2023/05/19 03:55:58;;;;;;;10.15;4.40;;;;;;;6.15;92.28;100095.44;5080988;28;20040;-62
2023/05/19 03:58:28;;;;;;;9.65;4.20;;;;;;;6.10;91.26;100092.53;5084504;28;20409;-62
2023/05/19 04:00:55;;;;;;;;;;;;;;;6.80;88.02;100093.41;5076823;28;20048;-62
2023/05/19 04:03:22;;;;;;;9.77;4.20;;;;;;;6.33;89.42;100097.63;5062744;28;19946;-62
2023/05/19 04:05:50;;;;;;;9.68;3.80;;;;;;;6.95;88.54;100114.63;5080178;28;20052;-62
2023/05/19 04:08:17;;;;;;;11.50;4.00;;;;;;;8.07;81.51;100107.16;5083891;28;20048;-63
2023/05/19 04:10:44;;;;;;;8.50;3.47;;;;;;;8.64;81.50;100111.06;5063003;28;20425;-62
2023/05/19 04:13:11;;;;;;;7.00;3.28;;;;;;;8.50;80.78;100120.13;5061976;28;20037;-62
2023/05/19 04:15:40;;;;;;;8.23;3.85;;;;;;;7.69;78.97;100113.88;5056940;28;20327;-63
2023/05/19 04:18:07;;;;;;;6.38;3.17;;;;;;;8.07;80.95;100109.81;5053338;28;20036;-62
2023/05/19 04:20:34;;;;;;;11.23;3.60;;;;;;;9.15;81.01;100115.66;5057951;28;20134;-62
2023/05/19 04:23:01;;;;;;;10.75;3.63;;;;;;;10.25;70.93;100111.94;5055756;28;20122;-62
2023/05/19 04:25:28;;;;;;;6.82;3.28;;;;;;;11.43;65.40;100109.06;5061393;28;20113;-62
2023/05/19 04:27:56;;;;;;;11.05;3.45;;;;;;;11.85;63.88;100113.66;5051601;28;20462;-62
2023/05/19 04:30:23;;;;;;;5.65;3.25;;;;;;;12.84;59.13;100107.72;5078739;28;20059;-62
2023/05/19 04:32:52;;;;;;;9.32;3.55;;;;;;;12.80;60.00;100106.53;5063097;28;20631;-62
2023/05/19 04:35:19;;;;;;;7.80;3.70;;;;;;;13.68;54.59;100107.25;5057643;28;20414;-62
2023/05/19 04:37:47;;;;;;;5.35;3.25;;;;;;;13.51;54.64;100109.91;5064638;28;20048;-63
2023/05/19 04:40:19;;;;;;;8.20;3.30;;;;;;;13.83;56.39;100112.94;5059793;28;20041;-62
2023/05/19 04:42:48;;;;;;;10.83;3.50;;;;;;;15.07;53.16;100119.97;5062221;28;20076;-62
2023/05/19 04:45:16;;;;;;;26.55;6.07;;;;;;;15.53;51.54;100122.44;5060607;28;20363;-62
2023/05/19 04:47:47;;;;;;;;;;;;;;;15.09;53.50;100125.13;5062321;28;20446;-62
2023/05/19 04:50:15;;;;;;;9.95;3.38;;;;;;;15.42;50.61;100120.69;5055922;28;20011;-62
2023/05/19 04:52:44;;;;;;;9.93;3.17;;;;;;;16.87;46.97;100124.41;5051429;28;20040;-62
2023/05/19 04:55:11;;;;;;;11.93;3.50;;;;;;;17.21;47.21;100130.28;5054269;28;20061;-62
2023/05/19 04:57:39;;;;;;;10.65;3.20;;;;;;;19.03;43.76;100127.19;5056590;28;20045;-62
2023/05/19 05:00:12;;;;;;;10.23;3.10;;;;;;;18.27;43.18;100119.94;5064399;28;20045;-62
2023/05/19 05:02:47;;;;;;;8.50;3.08;;;;;;;16.94;46.25;100114.97;5056652;28;20230;-62
2023/05/19 05:05:19;;;;;;;13.05;3.00;;;;;;;17.19;45.58;100121.59;5077560;28;20706;-62
2023/05/19 05:07:48;;;;;;;12.32;3.47;;;;;;;18.62;42.96;100113.69;5062720;28;20056;-63
2023/05/19 05:10:16;;;;;;;11.18;3.05;;;;;;;19.89;40.45;100121.63;5072123;28;20056;-62
2023/05/19 05:12:45;;;;;;;20.70;3.55;;;;;;;18.27;43.42;100115.38;5090276;28;20052;-62
2023/05/19 05:15:13;;;;;;;9.20;3.20;;;;;;;18.15;44.25;100119.44;5083462;28;20040;-62
2023/05/19 05:17:40;;;;;;;10.43;3.83;;;;;;;19.52;42.05;100121.03;5082265;28;20049;-62
2023/05/19 05:20:08;;;;;;;7.32;2.80;;;;;;;18.49;43.64;100117.75;5075715;28;20058;-60
2023/05/19 05:22:38;;;;;;;6.87;3.10;;;;;;;18.22;43.84;100120.78;5079037;28;20040;-63
2023/05/19 05:25:07;;;;;;;22.60;3.95;;;;;;;19.66;41.14;100123.94;5082642;28;20062;-61
2023/05/19 05:27:34;;;;;;;11.05;3.38;;;;;;;18.46;43.59;100122.94;5076098;28;20656;-62
2023/05/19 05:30:01;;;;;;;12.45;3.72;;;;;;;18.66;42.81;100122.09;5090248;28;20050;-61
2023/05/19 05:32:29;;;;;;;14.18;3.58;;;;;;;19.41;41.75;100122.16;5068269;28;20132;-63
2023/05/19 05:34:56;;;;;;;14.88;4.28;;;;;;;19.00;41.24;100124.25;5076002;28;20048;-62
2023/05/19 05:37:23;;;;;;;14.43;3.78;;;;;;;19.57;41.76;100129.16;5081842;28;20028;-62
2023/05/19 05:39:52;;;;;;;13.90;4.15;;;;;;;19.00;41.23;100127.75;5084260;28;20072;-63
2023/05/19 05:42:19;;;;;;;26.90;4.50;;;;;;;19.68;40.93;100131.84;5073686;28;20552;-63
2023/05/19 05:44:46;;;;;;;30.08;4.20;;;;;;;18.57;42.54;100124.56;5086346;28;20090;-62
2023/05/19 05:47:15;;;;;;;19.60;4.13;;;;;;;19.02;43.01;100124.75;5074830;28;20040;-62
2023/05/19 05:49:42;;;;;;;23.67;5.00;;;;;;;18.72;42.27;100127.25;5079581;28;20040;-62
2023/05/19 05:52:11;;;;;;;21.63;4.63;;;;;;;18.94;42.62;100123.41;5083948;28;20039;-62
2023/05/19 05:54:43;;;;;;;25.27;4.53;;;;;;;20.18;40.04;100124.44;5098696;28;20044;-62
2023/05/19 05:57:14;;;;;;;28.55;4.35;;;;;;;20.85;40.25;100122.72;5089014;28;20036;-62
2023/05/19 05:59:44;;;;;;;23.95;4.38;;;;;;;18.90;41.76;100112.31;5078537;28;20072;-62
2023/05/19 06:02:11;;;;;;;;;;;;;;;20.08;39.83;100124.50;5084983;28;20051;-62
2023/05/19 06:04:39;;;;;;;31.42;4.60;;;;;;;18.62;41.67;100121.00;5101284;28;19950;-62
2023/05/19 06:07:06;;;;;;;27.92;4.85;;;;;;;19.25;41.68;100126.84;5084059;28;20081;-62
2023/05/19 06:09:36;;;;;;;33.72;5.00;;;;;;;20.52;40.12;100123.56;5081948;28;20049;-62
2023/05/19 06:12:06;;;;;;;38.22;5.35;;;;;;;21.71;38.06;100117.31;5083362;28;20130;-62
2023/05/19 06:14:39;;;;;;;20.23;4.85;;;;;;;21.07;38.69;100113.25;5087101;28;20521;-62
2023/05/19 06:17:17;;;;;;;23.67;4.82;;;;;;;22.16;37.08;100112.25;5085020;28;20758;-62
2023/05/19 06:19:44;;;;;;;32.00;5.65;;;;;;;21.55;38.24;100118.66;5087315;28;20048;-62
2023/05/19 06:22:11;;;;;;;26.02;5.03;;;;;;;21.26;38.18;100111.34;5080784;28;20081;-62
2023/05/19 06:24:38;;;;;;;25.20;4.72;;;;;;;21.49;38.25;100119.81;5087286;28;20466;-62
2023/05/19 06:27:05;;;;;;;22.80;4.57;;;;;;;21.42;37.94;100112.00;5086292;28;20082;-62
2023/05/19 06:29:32;;;;;;;30.08;4.53;;;;;;;22.52;37.63;100111.69;5092544;28;20494;-63
2023/05/19 06:32:04;;;;;;;31.00;4.78;;;;;;;22.11;37.43;100114.25;5087403;28;20086;-60
2023/05/19 06:34:32;;;;;;;35.20;5.20;;;;;;;21.07;38.26;100118.69;5083631;28;20052;-63
2023/05/19 06:37:01;;;;;;;41.35;5.35;;;;;;;20.53;40.94;100106.16;5076346;28;20551;-62
2023/05/19 06:39:29;;;;;;;;;;;;;;;22.51;37.93;100112.78;5082293;28;20103;-61
2023/05/19 06:41:56;;;;;;;42.50;5.30;;;;;;;22.17;37.57;100113.91;5086970;28;19935;-62
2023/05/19 06:44:42;;;;;;;28.48;4.40;;;;;;;22.06;37.08;100114.34;5086796;28;20512;-62
2023/05/19 06:47:13;;;;;;;41.88;5.28;;;;;;;21.34;38.84;100112.59;5088387;28;20068;-63
2023/05/19 06:49:40;;;;;;;24.80;4.80;;;;;;;20.97;39.66;100107.91;5081849;28;20046;-63
2023/05/19 06:52:07;;;;;;;27.98;4.80;;;;;;;22.86;37.28;100107.78;5086019;28;20101;-62
2023/05/19 06:54:34;;;;;;;32.90;4.60;;;;;;;22.67;36.31;100110.59;5087048;28;20135;-61
2023/05/19 06:57:02;;;;;;;31.77;4.82;;;;;;;22.31;36.45;100107.69;5079344;28;20455;-61
2023/05/19 06:59:29;;;;;;;31.55;4.75;;;;;;;22.13;36.75;100101.94;5085774;28;20051;-64
2023/05/19 07:01:57;;;;;;;29.33;4.82;;;;;;;19.97;40.57;100112.91;5087338;28;20081;-63
2023/05/19 07:04:26;;;;;;;23.65;4.25;;;;;;;20.38;39.27;100112.56;5083422;28;20045;-63
2023/05/19 07:06:53;;;;;;;30.52;4.05;;;;;;;21.32;38.70;100106.66;5087088;28;20269;-61
2023/05/19 07:09:20;;;;;;;17.73;4.03;;;;;;;22.02;36.97;100103.22;5084912;28;20387;-61
2023/05/19 07:11:48;;;;;;;22.10;4.50;;;;;;;22.88;36.13;100111.00;5081641;28;20412;-61
2023/05/19 07:14:15;;;;;;;16.30;4.00;;;;;;;22.16;36.80;100106.00;5090181;28;20471;-61
2023/05/19 07:16:42;;;;;;;19.02;4.72;;;;;;;22.10;36.61;100105.28;5081450;28;20047;-61
2023/05/19 07:19:09;;;;;;;18.30;4.22;;;;;;;21.36;37.21;100112.31;5080631;28;20750;-61
2023/05/19 07:21:37;;;;;;;13.25;3.70;;;;;;;22.11;36.60;100109.59;5080909;28;20101;-61
2023/05/19 07:24:05;;;;;;;25.98;3.90;;;;;;;22.71;35.19;100103.41;5085134;28;20151;-61
2023/05/19 07:26:32;;;;;;;22.63;4.35;;;;;;;21.38;37.26;100107.41;5076439;28;20152;-61
2023/05/19 07:28:59;;;;;;;22.75;4.32;;;;;;;21.62;36.91;100108.19;5083891;28;20048;-61
2023/05/19 07:31:26;;;;;;;23.92;4.45;;;;;;;23.08;35.19;100103.56;5083577;28;20063;-60
2023/05/19 07:33:53;;;;;;;18.35;3.92;;;;;;;23.47;34.71;100092.88;5085684;28;20135;-61
2023/05/19 07:36:20;;;;;;;20.15;3.90;;;;;;;21.82;36.13;100101.63;5085046;28;20044;-61
2023/05/19 07:38:48;;;;;;;30.33;5.30;;;;;;;20.39;39.67;100098.66;5082787;28;20036;-63
2023/05/19 07:41:15;;;;;;;18.67;4.15;;;;;;;20.82;37.67;100096.06;5077050;28;20119;-61
2023/05/19 07:43:42;;;;;;;16.30;4.22;;;;;;;19.08;40.93;100100.00;5083834;28;20494;-60
2023/05/19 07:46:09;;;;;;;14.88;3.72;;;;;;;19.33;39.73;100092.84;5081105;28;20127;-60
2023/05/19 07:48:36;;;;;;;14.70;3.72;;;;;;;19.49;40.21;100102.53;5079218;28;20032;-63
2023/05/19 07:51:04;;;;;;;13.50;3.95;;;;;;;18.86;40.78;100091.41;5083755;28;20517;-60
2023/05/19 07:53:31;;;;;;;20.83;4.85;;;;;;;18.11;42.95;100089.31;5087843;28;20501;-63
2023/05/19 07:55:59;;;;;;;16.40;3.63;;;;;;;19.98;40.45;100084.59;5075160;28;20413;-62
2023/05/19 07:58:26;;;;;;;22.67;3.97;;;;;;;20.86;38.63;100080.75;5093275;28;20122;-63
2023/05/19 08:00:53;;;;;;;24.60;3.70;;;;;;;19.92;39.71;100089.25;5085412;28;20043;-62
2023/05/19 08:03:22;;;;;;;18.55;4.07;;;;;;;19.11;41.79;100083.16;5077594;28;20051;-62
2023/05/19 08:05:50;;;;;;;15.95;3.72;;;;;;;19.17;41.77;100079.34;5080465;28;20055;-62
2023/05/19 08:08:18;;;;;;;17.15;4.57;;;;;;;19.61;41.53;100081.25;5078834;28;20484;-62
2023/05/19 08:10:45;;;;;;;14.88;4.20;;;;;;;20.51;40.61;100070.22;5061649;28;20562;-60
2023/05/19 08:13:14;;;;;;;15.05;3.78;;;;;;;18.58;42.25;100080.03;5058524;28;20079;-62
2023/05/19 08:15:41;;;;;;;14.95;3.65;;;;;;;17.81;43.86;100068.41;5062229;28;20053;-62
2023/05/19 08:18:08;;;;;;;16.92;3.70;;;;;;;20.10;40.34;100067.91;5057980;28;20051;-61
2023/05/19 08:20:35;;;;;;;14.05;3.78;;;;;;;19.32;40.93;100069.47;5066039;28;20411;-63
2023/05/19 08:23:03;;;;;;;15.18;3.55;;;;;;;19.20;40.95;100058.13;5056537;28;20029;-62
2023/05/19 08:25:30;;;;;;;14.52;4.18;;;;;;;17.91;43.98;100057.56;5067936;28;20136;-62
2023/05/19 08:27:57;;;;;;;21.13;3.78;;;;;;;20.25;39.90;100052.22;5065411;28;20123;-62
2023/05/19 08:30:25;;;;;;;16.42;4.00;;;;;;;20.08;39.96;100059.19;5058972;28;20053;-62
2023/05/19 08:32:53;;;;;;;19.17;4.18;;;;;;;18.00;43.20;100053.25;5069774;28;20406;-62
2023/05/19 08:35:20;;;;;;;14.25;3.38;;;;;;;17.46;43.77;100057.19;5073286;28;20542;-62
2023/05/19 08:37:47;;;;;;;17.55;4.13;;;;;;;16.73;45.47;100059.09;5061257;28;20376;-60
2023/05/19 08:40:16;;;;;;;15.13;3.80;;;;;;;16.52;45.94;100053.53;5054868;28;20269;-62
2023/05/19 08:42:43;;;;;;;14.75;3.53;;;;;;;17.71;43.77;100052.91;5058642;28;20049;-60
2023/05/19 08:45:12;;;;;;;18.98;4.20;;;;;;;17.38;44.69;100051.50;5072071;28;20040;-62
2023/05/19 08:47:41;;;;;;;13.57;3.80;;;;;;;16.54;46.29;100050.56;5055317;28;20056;-61
2023/05/19 08:50:09;;;;;;;11.48;3.70;;;;;;;17.23;45.69;100041.44;5061286;28;20147;-60
2023/05/19 08:52:44;;;;;;;15.70;3.83;;;;;;;16.65;45.61;100043.31;5058307;28;20033;-62
2023/05/19 08:55:15;;;;;;;13.32;3.83;;;;;;;17.11;45.43;100044.38;5063332;28;20049;-62
2023/05/19 08:57:42;;;;;;;13.32;3.70;;;;;;;16.40;47.07;100039.41;5060302;28;20072;-62
2023/05/19 09:00:11;;;;;;;15.40;4.28;;;;;;;16.85;46.03;100040.78;5064880;28;20036;-61
2023/05/19 09:02:38;;;;;;;16.40;3.72;;;;;;;17.31;45.57;100038.22;5054284;28;20049;-61
2023/05/19 09:05:07;;;;;;;13.57;3.92;;;;;;;18.10;43.92;100038.88;5067495;28;20045;-61
2023/05/19 09:07:34;;;;;;;16.52;3.80;;;;;;;18.52;43.30;100024.13;5062760;28;20127;-62
2023/05/19 09:10:01;;;;;;;14.27;3.88;;;;;;;18.11;43.72;100025.00;5086809;27;20062;-62
2023/05/19 09:12:30;;;;;;;15.98;3.60;;;;;;;19.39;42.91;100030.03;5092738;28;20064;-61
2023/05/19 09:14:57;;;;;;;14.93;3.80;;;;;;;19.42;41.94;100025.94;5100527;28;20474;-61
2023/05/19 09:17:24;;;;;;;15.45;3.97;;;;;;;17.24;43.52;100024.09;5099959;28;20478;-62
2023/05/19 09:19:51;;;;;;;11.32;3.75;;;;;;;17.37;43.50;100026.31;5100035;28;20067;-61
2023/05/19 09:22:20;;;;;;;19.05;3.95;;;;;;;17.74;44.08;100029.88;5080297;28;20047;-62
2023/05/19 09:24:47;;;;;;;12.65;3.92;;;;;;;17.95;43.38;100020.69;5098831;28;20055;-61
2023/05/19 09:27:14;;;;;;;13.70;3.60;;;;;;;18.05;43.52;100014.47;5101185;27;20391;-61
2023/05/19 09:29:42;;;;;;;8.13;3.63;;;;;;;17.76;42.97;100017.66;5087504;28;20177;-62
2023/05/19 09:32:09;;;;;;;13.55;4.13;;;;;;;18.63;42.19;100012.16;5096745;28;20126;-62
2023/05/19 09:34:40;;;;;;;22.77;3.83;;;;;;;18.92;40.70;100015.06;5099468;28;20044;-61
2023/05/19 09:37:07;;;;;;;15.25;3.75;;;;;;;19.38;42.04;100008.56;5095996;28;20036;-61
2023/05/19 09:39:35;;;;;;;14.80;3.85;;;;;;;18.25;42.89;100014.41;5102482;28;20052;-60
2023/05/19 09:42:04;;;;;;;18.50;3.55;;;;;;;18.83;42.29;100014.00;5095295;28;20494;-61
2023/05/19 09:44:32;;;;;;;15.55;3.70;;;;;;;18.24;43.25;100012.78;5105719;28;20040;-61
2023/05/19 09:46:59;;;;;;;16.55;3.67;;;;;;;19.69;40.95;100006.44;5100568;28;20130;-60
2023/05/19 09:49:28;;;;;;;12.43;3.45;;;;;;;18.89;40.42;100009.34;5103691;28;20047;-60
2023/05/19 09:51:55;;;;;;;15.07;4.00;;;;;;;18.96;41.40;100004.44;5093161;28;20458;-60
2023/05/19 09:54:23;;;;;;;13.55;3.70;;;;;;;18.91;40.95;99999.03;5102118;28;20406;-60
2023/05/19 09:56:58;;;;;;;13.10;3.45;;;;;;;20.47;39.71;99997.28;5094560;28;20497;-60
2023/05/19 09:59:25;;;;;;;14.30;3.63;;;;;;;19.28;40.86;100003.19;5104195;28;20150;-60
2023/05/19 10:01:54;;;;;;;30.13;4.38;;;;;;;18.23;42.09;99994.88;5099787;28;20055;-60
2023/05/19 10:04:21;;;;;;;12.80;4.05;;;;;;;18.01;42.73;99997.91;5104132;28;20459;-61
2023/05/19 10:06:52;;;;;;;12.90;3.40;;;;;;;18.19;42.05;99987.56;5104437;28;20051;-62
2023/05/19 10:09:22;;;;;;;11.70;3.42;;;;;;;17.42;43.49;99990.25;5105669;28;20094;-62
2023/05/19 10:11:49;;;;;;;12.98;3.75;;;;;;;17.45;44.02;99979.72;5100189;28;20307;-62
2023/05/19 10:14:17;;;;;;;12.77;3.35;;;;;;;19.57;40.68;99974.16;5096077;28;20043;-62
2023/05/19 10:16:44;;;;;;;9.45;3.30;;;;;;;19.39;41.06;99972.13;5094426;28;20044;-62
2023/05/19 10:19:11;;;;;;;13.10;3.72;;;;;;;18.81;41.24;99977.34;5095993;28;20485;-62
2023/05/19 10:21:38;;;;;;;12.13;3.50;;;;;;;19.80;40.49;99982.72;5096969;28;20128;-60
2023/05/19 10:24:06;;;;;;;13.55;3.67;;;;;;;19.02;39.66;99980.78;5101065;28;20047;-62
2023/05/19 10:26:33;;;;;;;11.65;3.28;;;;;;;18.91;40.53;99971.88;5103149;28;20123;-62
2023/05/19 10:29:00;;;;;;;12.57;3.10;;;;;;;18.66;41.22;99973.59;5094461;28;20075;-62
2023/05/19 10:31:30;;;;;;;13.55;3.65;;;;;;;20.11;39.41;99968.81;5094184;28;20471;-62
2023/05/19 10:34:05;;;;;;;12.27;3.28;;;;;;;18.44;40.69;99983.97;5099683;28;20599;-62
2023/05/19 10:36:43;;;;;;;12.27;3.38;;;;;;;18.67;39.23;99972.50;5105998;28;20047;-62
2023/05/19 10:39:13;;;;;;;16.02;3.80;;;;;;;18.49;38.77;99973.09;5096794;28;20035;-60
2023/05/19 10:41:41;;;;;;;10.48;3.47;;;;;;;18.83;38.17;99958.88;5084045;28;20048;-60
2023/05/19 10:44:10;;;;;;;11.48;3.35;;;;;;;18.94;38.85;99965.88;5103763;28;22079;-60
2023/05/19 10:46:39;;;;;;;10.98;3.42;;;;;;;18.40;39.55;99972.06;5106014;28;20066;-60
2023/05/19 10:49:07;;;;;;;9.45;3.40;;;;;;;18.23;39.81;99967.75;5103558;28;20067;-60
2023/05/19 10:51:34;;;;;;;9.20;3.40;;;;;;;17.56;40.51;99968.88;5101387;27;20044;-60
2023/05/19 10:54:02;;;;;;;9.25;3.40;;;;;;;17.70;40.55;99953.72;5102180;28;20035;-60
2023/05/19 10:56:31;;;;;;;13.48;3.85;;;;;;;18.56;39.65;99951.91;5105510;28;20040;-60
2023/05/19 10:58:58;;;;;;;13.60;3.40;;;;;;;18.18;40.84;99950.69;5105864;28;20040;-60
2023/05/19 11:01:30;;;;;;;10.00;3.10;;;;;;;18.60;40.72;99944.84;5100023;28;20040;-60
2023/05/19 11:04:04;;;;;;;10.65;3.95;;;;;;;17.97;40.69;99958.03;5099875;28;20036;-60
2023/05/19 11:06:32;;;;;;;18.95;3.90;;;;;;;17.82;41.25;99946.13;5102668;28;20124;-60
2023/05/19 11:09:00;;;;;;;9.00;3.30;;;;;;;19.26;40.52;99942.88;5095930;28;20048;-60
2023/05/19 11:11:42;;;;;;;11.07;3.10;;;;;;;19.39;40.45;99939.50;5106051;28;20131;-60
2023/05/19 11:14:10;;;;;;;9.77;3.40;;;;;;;19.10;39.06;99936.72;5102285;28;20043;-60
2023/05/19 11:16:37;;;;;;;9.10;3.10;;;;;;;19.33;38.36;99929.78;5102533;28;20084;-60
2023/05/19 11:19:05;;;;;;;11.15;2.92;;;;;;;18.72;40.82;99930.91;5096028;28;20500;-60
2023/05/19 11:21:43;;;;;;;11.48;3.10;;;;;;;19.28;39.30;99929.81;5095629;28;20047;-60
2023/05/19 11:24:10;;;;;;;8.45;3.00;;;;;;;19.98;39.16;99924.88;5099133;28;20165;-60
2023/05/19 11:26:43;;;;;;;13.20;3.63;;;;;;;21.08;38.12;99924.06;5096394;28;20047;-60
2023/05/19 11:29:10;;;;;;;15.77;3.97;;;;;;;20.77;37.27;99919.06;5102930;28;20051;-60
2023/05/19 11:31:37;;;;;;;13.23;3.25;;;;;;;21.21;36.90;99923.31;5098762;28;20055;-61